createdAt,value
2019-05-07T00:01:54.945Z,11.20
2019-05-07T00:04:24.394Z,9.77
2019-05-07T00:06:54.470Z,9.80
2019-05-07T00:09:24.458Z,9.37
2019-05-07T00:11:54.249Z,10.60
2019-05-07T00:14:24.931Z,9.43
2019-05-07T00:16:54.835Z,11.53
2019-05-07T00:19:24.989Z,10.37
2019-05-07T00:21:55.155Z,9.50
2019-05-07T00:24:25.140Z,10.37
2019-05-07T00:26:54.989Z,13.03
2019-05-07T00:29:24.808Z,8.83
2019-05-07T00:31:55.177Z,8.37
2019-05-07T00:34:29.407Z,8.83
2019-05-07T00:37:07.003Z,9.57
2019-05-07T00:40:02.796Z,11.43
2019-05-07T00:42:39.252Z,9.63
2019-05-07T00:45:20.312Z,8.53
2019-05-07T00:47:47.665Z,7.40
2019-05-07T00:50:24.344Z,9.27
2019-05-07T00:52:54.484Z,7.97
2019-05-07T00:55:24.893Z,9.50
2019-05-07T00:57:55.436Z,14.93
2019-05-07T01:00:25.328Z,8.20
2019-05-07T01:02:57.414Z,8.57
2019-05-07T01:05:27.303Z,8.63
2019-05-07T01:07:57.694Z,8.27
2019-05-07T01:10:27.466Z,7.80
2019-05-07T01:12:59.301Z,8.07
2019-05-07T01:15:32.093Z,8.10
2019-05-07T01:18:02.886Z,10.97
2019-05-07T01:20:33.125Z,10.63
2019-05-07T01:23:02.982Z,10.17
2019-05-07T01:25:33.511Z,8.10
2019-05-07T01:28:04.058Z,9.17
2019-05-07T01:30:37.625Z,8.57
2019-05-07T01:33:38.658Z,11.17
2019-05-07T01:36:19.421Z,9.70
2019-05-07T01:38:49.341Z,9.10
2019-05-07T01:41:19.323Z,9.97
2019-05-07T01:43:49.767Z,8.67
2019-05-07T01:46:19.796Z,10.00
2019-05-07T01:48:53.580Z,10.47
2019-05-07T01:51:22.232Z,10.30
2019-05-07T01:53:52.493Z,9.67
2019-05-07T01:56:23.469Z,10.33
2019-05-07T01:58:53.509Z,10.53
2019-05-07T02:01:23.791Z,9.40
2019-05-07T02:04:09.638Z,9.43
2019-05-07T02:06:59.026Z,10.47
2019-05-07T02:09:47.645Z,13.43
2019-05-07T02:12:31.772Z,9.67
2019-05-07T02:15:03.523Z,9.13
2019-05-07T02:17:33.542Z,10.50
2019-05-07T02:20:03.421Z,11.30
2019-05-07T02:22:33.329Z,11.33
2019-05-07T02:25:03.559Z,13.33
2019-05-07T02:27:33.599Z,13.40
2019-05-07T02:30:04.722Z,12.67
2019-05-07T02:32:34.719Z,13.87
2019-05-07T02:35:05.090Z,10.57
2019-05-07T02:37:51.002Z,11.50
2019-05-07T02:40:22.875Z,13.13
2019-05-07T02:42:53.975Z,11.70
2019-05-07T02:45:37.170Z,13.50
2019-05-07T02:48:07.239Z,12.87
2019-05-07T02:50:56.088Z,12.40
2019-05-07T02:53:33.745Z,13.57
2019-05-07T02:56:04.410Z,18.43
2019-05-07T02:58:34.364Z,15.70
2019-05-07T03:01:05.156Z,11.90
2019-05-07T03:03:35.554Z,16.70
2019-05-07T03:06:05.526Z,14.63
2019-05-07T03:08:36.260Z,16.57
2019-05-07T03:11:06.230Z,13.70
2019-05-07T03:13:36.799Z,20.70
2019-05-07T03:16:07.423Z,13.60
2019-05-07T03:18:38.013Z,15.27
2019-05-07T03:21:15.094Z,13.90
2019-05-07T03:24:03.930Z,17.10
2019-05-07T03:26:38.444Z,17.80
2019-05-07T03:29:13.198Z,16.83
2019-05-07T03:32:06.449Z,16.17
2019-05-07T03:34:57.833Z,15.97
2019-05-07T03:37:33.192Z,20.07
2019-05-07T03:40:03.018Z,21.63
2019-05-07T03:42:33.899Z,18.73
2019-05-07T03:45:23.100Z,15.73
2019-05-07T03:48:03.865Z,16.83
2019-05-07T03:50:33.980Z,15.33
2019-05-07T03:53:03.926Z,16.17
2019-05-07T03:55:34.328Z,16.97
2019-05-07T03:58:04.781Z,14.57
2019-05-07T04:00:35.475Z,17.57
2019-05-07T04:03:05.473Z,17.60
2019-05-07T04:05:35.388Z,15.83
2019-05-07T04:08:05.443Z,23.17
2019-05-07T04:10:35.351Z,21.47
2019-05-07T04:13:05.341Z,19.80
2019-05-07T04:15:35.506Z,16.53
2019-05-07T04:18:05.421Z,18.03
2019-05-07T04:20:35.452Z,16.93
2019-05-07T04:23:05.968Z,16.50
2019-05-07T04:25:58.019Z,15.40
2019-05-07T04:28:36.902Z,16.97
2019-05-07T04:31:07.040Z,16.83
2019-05-07T04:33:43.691Z,17.67
2019-05-07T04:36:23.063Z,22.03
2019-05-07T04:38:53.269Z,22.17
2019-05-07T04:41:23.780Z,18.17
2019-05-07T04:43:54.280Z,20.13
2019-05-07T04:46:24.584Z,17.30
2019-05-07T04:48:54.898Z,15.17
2019-05-07T04:51:33.607Z,18.33
2019-05-07T04:54:04.266Z,22.13
2019-05-07T04:56:34.306Z,19.77
2019-05-07T04:59:04.341Z,20.57
2019-05-07T05:01:38.463Z,21.13
2019-05-07T05:04:24.265Z,19.80
2019-05-07T05:06:44.147Z,17.83
2019-05-07T05:09:14.573Z,21.00
2019-05-07T05:11:44.610Z,18.30
2019-05-07T05:14:14.439Z,19.97
2019-05-07T05:16:44.309Z,18.23
2019-05-07T05:19:14.221Z,19.27
2019-05-07T05:22:12.855Z,21.23
2019-05-07T05:24:46.722Z,29.67
2019-05-07T05:27:16.686Z,31.10
2019-05-07T05:29:47.029Z,26.27
2019-05-07T05:32:17.181Z,22.33
2019-05-07T05:34:47.082Z,21.30
2019-05-07T05:37:17.547Z,21.40
2019-05-07T05:39:47.421Z,24.53
2019-05-07T05:42:27.634Z,20.30
2019-05-07T05:44:57.694Z,21.27
2019-05-07T05:47:27.891Z,22.53
2019-05-07T05:49:57.671Z,18.77
2019-05-07T05:52:37.646Z,19.37
2019-05-07T05:55:19.585Z,26.33
2019-05-07T05:58:07.262Z,26.10
2019-05-07T06:01:13.120Z,24.50
2019-05-07T06:04:22.105Z,16.20
2019-05-07T06:07:10.780Z,17.53
2019-05-07T06:09:43.517Z,22.30
2019-05-07T06:12:32.777Z,23.33
2019-05-07T06:15:12.647Z,15.53
2019-05-07T06:18:17.714Z,27.73
2019-05-07T06:21:06.156Z,17.53
2019-05-07T06:23:44.467Z,29.80
2019-05-07T06:26:14.664Z,33.07
2019-05-07T06:28:44.668Z,27.67
2019-05-07T06:31:15.762Z,32.80
2019-05-07T06:33:47.004Z,23.03
2019-05-07T06:36:21.981Z,23.50
2019-05-07T06:39:02.296Z,24.53
2019-05-07T06:41:50.054Z,16.33
2019-05-07T06:44:22.772Z,26.30
2019-05-07T06:46:53.394Z,19.90
2019-05-07T06:49:23.361Z,20.80
2019-05-07T06:51:55.634Z,28.83
2019-05-07T06:54:25.523Z,18.17
2019-05-07T06:56:55.770Z,28.60
2019-05-07T06:59:37.598Z,29.37
2019-05-07T07:02:28.680Z,22.87
2019-05-07T07:05:02.987Z,35.10
2019-05-07T07:07:45.587Z,31.87
2019-05-07T07:10:53.708Z,25.80
2019-05-07T07:13:24.522Z,16.83
2019-05-07T07:15:57.690Z,26.23
2019-05-07T07:18:33.110Z,24.80
2019-05-07T07:21:04.444Z,20.63
2019-05-07T07:23:34.856Z,23.33
2019-05-07T07:26:05.013Z,18.37
2019-05-07T07:28:35.247Z,24.43
2019-05-07T07:31:26.160Z,18.50
2019-05-07T07:33:56.349Z,17.27
2019-05-07T07:36:32.074Z,17.97
2019-05-07T07:39:02.158Z,16.80
2019-05-07T07:41:42.205Z,16.23
2019-05-07T07:44:16.457Z,17.40
2019-05-07T07:47:02.720Z,14.93
2019-05-07T07:49:33.225Z,11.03
2019-05-07T07:52:03.385Z,12.80
2019-05-07T07:54:33.393Z,13.37
2019-05-07T07:57:17.430Z,11.60
2019-05-07T08:00:09.287Z,13.20
2019-05-07T08:02:44.265Z,11.10
2019-05-07T08:05:14.308Z,10.60
2019-05-07T08:07:45.367Z,12.90
2019-05-07T08:10:15.697Z,13.00
2019-05-07T08:12:45.669Z,19.37
2019-05-07T08:15:20.920Z,15.57
2019-05-07T08:17:49.386Z,14.13
2019-05-07T08:20:22.342Z,17.27
2019-05-07T08:22:53.268Z,17.97
2019-05-07T08:25:42.665Z,17.93
2019-05-07T08:28:13.401Z,17.27
2019-05-07T08:30:45.320Z,17.07
2019-05-07T08:33:22.423Z,15.97
2019-05-07T08:36:14.745Z,17.83
2019-05-07T08:38:53.210Z,20.17
2019-05-07T08:41:25.561Z,15.63
2019-05-07T08:44:11.646Z,15.67
2019-05-07T08:46:57.810Z,15.23
2019-05-07T08:49:37.028Z,13.90
2019-05-07T08:52:05.763Z,14.47
2019-05-07T08:54:36.045Z,14.20
2019-05-07T08:57:06.995Z,13.80
2019-05-07T08:59:43.722Z,12.97
2019-05-07T09:02:16.022Z,13.87
2019-05-07T09:04:47.476Z,22.40
2019-05-07T09:07:21.672Z,13.27
2019-05-07T09:09:56.808Z,23.47
2019-05-07T09:12:27.999Z,14.93
2019-05-07T09:15:01.994Z,9.77
2019-05-07T09:17:31.972Z,10.07
2019-05-07T09:20:09.138Z,7.87
2019-05-07T09:22:42.708Z,9.40
2019-05-07T09:25:18.738Z,9.37
2019-05-07T09:27:53.425Z,9.10
2019-05-07T09:30:34.476Z,8.90
2019-05-07T09:33:23.490Z,6.87
2019-05-07T09:35:55.161Z,8.40
2019-05-07T09:38:25.761Z,11.03
2019-05-07T09:40:57.053Z,8.80
2019-05-07T09:43:27.319Z,10.70
2019-05-07T09:45:58.442Z,8.60
2019-05-07T09:48:30.798Z,8.70
2019-05-07T09:51:02.355Z,8.17
2019-05-07T09:53:35.551Z,11.27
2019-05-07T09:56:12.358Z,7.37
2019-05-07T09:58:45.190Z,10.83
2019-05-07T10:01:15.512Z,11.17
2019-05-07T10:03:51.844Z,13.40
2019-05-07T10:06:23.496Z,9.40
2019-05-07T10:08:54.791Z,8.20
2019-05-07T10:11:49.821Z,8.20
2019-05-07T10:14:22.396Z,7.63
2019-05-07T10:17:11.952Z,7.80
2019-05-07T10:19:45.757Z,6.10
2019-05-07T10:22:16.471Z,6.97
2019-05-07T10:24:46.985Z,6.27
2019-05-07T10:27:17.136Z,7.93
2019-05-07T10:29:47.490Z,15.47
2019-05-07T10:32:17.866Z,7.03
2019-05-07T10:34:49.747Z,6.07
2019-05-07T10:37:20.538Z,6.53
2019-05-07T10:39:51.990Z,7.20
2019-05-07T10:42:22.730Z,6.63
2019-05-07T10:45:10.070Z,8.60
2019-05-07T10:48:02.626Z,8.77
2019-05-07T10:50:38.362Z,6.73
2019-05-07T10:53:05.846Z,6.50
2019-05-07T10:55:36.369Z,9.77
2019-05-07T10:58:07.659Z,5.73
2019-05-07T11:00:38.084Z,9.30
2019-05-07T11:03:08.614Z,6.33
2019-05-07T11:05:41.699Z,5.77
2019-05-07T11:08:11.469Z,6.77
2019-05-07T11:10:41.951Z,6.37
2019-05-07T11:13:12.866Z,10.07
2019-05-07T11:15:45.261Z,6.37
2019-05-07T11:18:26.667Z,7.23
2019-05-07T11:20:56.662Z,4.90
2019-05-07T11:23:26.794Z,6.30
2019-05-07T11:25:56.767Z,4.97
2019-05-07T11:28:27.331Z,5.40
2019-05-07T11:30:59.312Z,5.70
2019-05-07T11:33:32.500Z,7.30
2019-05-07T11:36:02.550Z,6.73
2019-05-07T11:38:33.553Z,6.90
2019-05-07T11:41:05.044Z,6.47
2019-05-07T11:43:49.629Z,5.50
2019-05-07T11:46:24.681Z,5.37
2019-05-07T11:49:01.010Z,8.27
2019-05-07T11:51:45.300Z,5.33
2019-05-07T11:54:15.289Z,4.73
2019-05-07T11:56:45.174Z,5.70
2019-05-07T11:59:16.314Z,4.50
2019-05-07T12:01:50.110Z,5.50
2019-05-07T12:04:20.123Z,5.73
2019-05-07T12:06:52.083Z,4.90
2019-05-07T12:09:22.099Z,10.67
2019-05-07T12:11:52.352Z,4.93
2019-05-07T12:14:31.377Z,5.93
2019-05-07T12:16:55.573Z,5.50
2019-05-07T12:19:25.478Z,6.70
2019-05-07T12:21:55.776Z,5.97
2019-05-07T12:24:26.603Z,6.23
2019-05-07T12:26:56.809Z,5.57
2019-05-07T12:29:27.126Z,6.10
2019-05-07T12:32:05.222Z,8.17
2019-05-07T12:34:45.248Z,6.10
2019-05-07T12:37:15.243Z,8.60
2019-05-07T12:39:45.319Z,7.93
2019-05-07T12:42:15.244Z,8.57
2019-05-07T12:44:45.495Z,6.97
2019-05-07T12:47:16.331Z,8.10
2019-05-07T12:49:46.403Z,6.43
2019-05-07T12:52:32.025Z,7.60
2019-05-07T12:55:08.584Z,7.37
2019-05-07T12:57:38.730Z,7.83
2019-05-07T13:00:26.940Z,7.37
2019-05-07T13:03:36.361Z,7.13
2019-05-07T13:06:07.252Z,7.40
2019-05-07T13:08:37.372Z,7.17
2019-05-07T13:11:07.642Z,7.53
2019-05-07T13:13:38.109Z,7.00
2019-05-07T13:16:08.821Z,7.53
2019-05-07T13:18:42.153Z,7.20
2019-05-07T13:21:11.974Z,6.83
2019-05-07T13:23:42.274Z,6.60
2019-05-07T13:26:12.916Z,7.73
2019-05-07T13:28:44.385Z,6.97
2019-05-07T13:31:14.576Z,8.23
2019-05-07T13:33:46.926Z,5.40
2019-05-07T13:36:17.441Z,6.83
2019-05-07T13:38:57.786Z,5.50
2019-05-07T13:41:47.155Z,4.70
2019-05-07T13:44:42.267Z,4.97
2019-05-07T13:47:29.335Z,5.17
2019-05-07T13:50:02.458Z,5.50
2019-05-07T13:52:34.057Z,5.07
2019-05-07T13:55:04.189Z,4.43
2019-05-07T13:57:34.213Z,4.70
2019-05-07T14:00:05.898Z,4.73
2019-05-07T14:02:35.977Z,4.53
2019-05-07T14:05:06.530Z,4.30
2019-05-07T14:07:41.676Z,4.43
2019-05-07T14:10:12.817Z,4.23
2019-05-07T14:12:43.213Z,4.00
2019-05-07T14:15:14.031Z,4.63
2019-05-07T14:17:44.484Z,4.17
2019-05-07T14:20:14.868Z,4.40
2019-05-07T14:22:45.867Z,4.20
2019-05-07T14:25:16.212Z,5.00
2019-05-07T14:27:52.614Z,4.97
2019-05-07T14:30:24.527Z,4.50
2019-05-07T14:33:12.420Z,4.73
2019-05-07T14:35:49.053Z,5.13
2019-05-07T14:38:37.957Z,4.70
2019-05-07T14:41:08.221Z,4.53
2019-05-07T14:43:47.304Z,5.43
2019-05-07T14:46:17.416Z,4.80
2019-05-07T14:48:52.114Z,4.90
2019-05-07T14:51:22.252Z,5.53
2019-05-07T14:53:52.811Z,4.83
2019-05-07T14:56:23.243Z,5.27
2019-05-07T14:58:53.827Z,4.57
2019-05-07T15:01:24.090Z,4.73
2019-05-07T15:03:54.113Z,3.83
2019-05-07T15:06:24.189Z,7.80
2019-05-07T15:08:54.447Z,5.13
2019-05-07T15:11:24.470Z,5.20
2019-05-07T15:13:55.012Z,6.63
2019-05-07T15:16:25.143Z,6.17
2019-05-07T15:19:00.342Z,3.70
2019-05-07T15:21:32.314Z,5.90
2019-05-07T15:24:03.420Z,6.77
2019-05-07T15:26:34.849Z,6.63
2019-05-07T15:29:14.039Z,6.73
2019-05-07T15:32:04.864Z,5.33
2019-05-07T15:34:35.261Z,9.13
2019-05-07T15:37:05.526Z,6.17
2019-05-07T15:39:35.238Z,6.70
2019-05-07T15:42:05.349Z,5.90
2019-05-07T15:44:35.751Z,7.30
2019-05-07T15:47:11.823Z,6.57
2019-05-07T15:49:42.209Z,7.40
2019-05-07T15:52:18.499Z,6.27
2019-05-07T15:54:49.103Z,6.43
2019-05-07T15:57:24.489Z,5.80
2019-05-07T16:00:05.347Z,6.33
2019-05-07T16:02:38.438Z,9.83
2019-05-07T16:05:08.972Z,6.80
2019-05-07T16:07:39.210Z,5.93
2019-05-07T16:10:09.532Z,5.60
2019-05-07T16:12:42.411Z,5.57
2019-05-07T16:15:13.865Z,4.87
2019-05-07T16:17:48.835Z,5.17
2019-05-07T16:20:18.859Z,5.93
2019-05-07T16:22:52.559Z,5.77
2019-05-07T16:25:24.247Z,5.40
2019-05-07T16:27:54.324Z,5.27
2019-05-07T16:30:24.453Z,5.10
2019-05-07T16:32:55.401Z,5.70
2019-05-07T16:35:25.455Z,5.83
2019-05-07T16:37:55.573Z,6.07
2019-05-07T16:40:25.477Z,5.27
2019-05-07T16:43:15.339Z,6.73
2019-05-07T16:45:51.644Z,10.10
2019-05-07T16:48:23.260Z,5.83
2019-05-07T16:50:53.318Z,7.67
2019-05-07T16:53:29.636Z,6.30
2019-05-07T16:55:54.792Z,9.37
2019-05-07T16:58:35.651Z,7.80
2019-05-07T17:01:08.252Z,6.63
2019-05-07T17:03:44.540Z,6.83
2019-05-07T17:06:15.120Z,7.20
2019-05-07T17:09:04.252Z,6.50
2019-05-07T17:11:34.350Z,7.97
2019-05-07T17:14:04.399Z,7.50
2019-05-07T17:16:34.417Z,6.93
2019-05-07T17:19:05.591Z,6.50
2019-05-07T17:21:40.075Z,6.10
2019-05-07T17:24:11.931Z,6.17
2019-05-07T17:26:42.510Z,7.50
2019-05-07T17:29:12.863Z,6.50
2019-05-07T17:31:43.255Z,6.23
2019-05-07T17:34:13.427Z,6.50
2019-05-07T17:36:44.135Z,6.33
2019-05-07T17:39:16.381Z,6.37
2019-05-07T17:41:47.210Z,6.17
2019-05-07T17:44:17.209Z,8.73
2019-05-07T17:46:47.759Z,7.53
2019-05-07T17:49:17.908Z,6.17
2019-05-07T17:51:49.058Z,6.43
2019-05-07T17:54:22.368Z,6.47
2019-05-07T17:56:52.758Z,6.93
2019-05-07T17:59:22.917Z,7.10
2019-05-07T18:02:18.254Z,5.80
2019-05-07T18:04:52.181Z,6.57
2019-05-07T18:07:21.604Z,6.73
2019-05-07T18:09:51.939Z,6.07
2019-05-07T18:12:22.614Z,8.63
2019-05-07T18:14:54.223Z,10.03
2019-05-07T18:17:50.097Z,8.77
2019-05-07T18:20:22.190Z,6.57
2019-05-07T18:22:53.074Z,7.37
2019-05-07T18:25:26.964Z,7.80
2019-05-07T18:27:57.608Z,7.33
2019-05-07T18:30:29.692Z,7.50
2019-05-07T18:33:28.523Z,7.10
2019-05-07T18:35:59.378Z,8.30
2019-05-07T18:38:30.184Z,7.50
2019-05-07T18:41:02.825Z,9.57
2019-05-07T18:43:35.556Z,9.97
2019-05-07T18:46:05.790Z,10.53
2019-05-07T18:48:37.555Z,13.77
2019-05-07T18:51:08.988Z,22.30
2019-05-07T18:53:42.321Z,23.93
2019-05-07T18:56:12.769Z,22.40
2019-05-07T18:58:43.739Z,16.47
2019-05-07T19:01:15.324Z,9.27
2019-05-07T19:03:50.078Z,11.73
2019-05-07T19:06:22.268Z,8.43
2019-05-07T19:08:52.884Z,8.30
2019-05-07T19:11:23.543Z,8.17
2019-05-07T19:13:56.171Z,16.87
2019-05-07T19:16:26.897Z,14.73
2019-05-07T19:18:58.487Z,9.87
2019-05-07T19:21:31.854Z,9.33
2019-05-07T19:24:05.029Z,13.80
2019-05-07T19:26:35.742Z,13.30
2019-05-07T19:29:06.454Z,12.37
2019-05-07T19:31:41.761Z,11.07
2019-05-07T19:34:12.623Z,10.03
2019-05-07T19:36:43.232Z,12.23
2019-05-07T19:39:13.810Z,12.10
2019-05-07T19:41:46.072Z,10.60
2019-05-07T19:44:17.111Z,9.97
2019-05-07T19:46:49.149Z,12.20
2019-05-07T19:49:24.403Z,9.23
2019-05-07T19:51:55.680Z,12.70
2019-05-07T19:54:26.414Z,10.83
2019-05-07T19:56:57.378Z,11.50
2019-05-07T19:59:35.823Z,9.53
2019-05-07T20:02:12.119Z,10.53
2019-05-07T20:04:53.653Z,10.60
2019-05-07T20:07:32.607Z,10.10
2019-05-07T20:10:12.974Z,12.17
2019-05-07T20:12:48.783Z,10.63
2019-05-07T20:15:26.108Z,9.97
2019-05-07T20:18:03.130Z,10.17
2019-05-07T20:20:37.939Z,9.63
2019-05-07T20:23:11.917Z,10.77
2019-05-07T20:25:42.135Z,10.90
2019-05-07T20:28:12.848Z,13.60
2019-05-07T20:30:43.723Z,11.00
2019-05-07T20:33:14.107Z,9.33
2019-05-07T20:35:44.769Z,11.03
2019-05-07T20:38:16.144Z,11.90
2019-05-07T20:40:52.036Z,12.70
2019-05-07T20:43:24.354Z,12.93
2019-05-07T20:45:54.760Z,12.03
2019-05-07T20:48:25.835Z,13.77
2019-05-07T20:50:58.712Z,16.80
2019-05-07T20:53:57.319Z,17.90
2019-05-07T20:56:34.189Z,17.50
2019-05-07T20:59:04.994Z,14.07
2019-05-07T21:01:41.854Z,22.57
2019-05-07T21:04:12.952Z,14.80
2019-05-07T21:06:43.518Z,17.27
2019-05-07T21:09:16.141Z,18.17
2019-05-07T21:11:46.143Z,16.63
2019-05-07T21:14:16.519Z,14.47
2019-05-07T21:16:46.530Z,20.17
2019-05-07T21:19:17.820Z,34.93
2019-05-07T21:21:48.131Z,23.37
2019-05-07T21:24:18.091Z,20.97
2019-05-07T21:26:48.143Z,15.73
2019-05-07T21:29:21.742Z,18.17
2019-05-07T21:31:53.985Z,15.03
2019-05-07T21:34:24.237Z,16.37
2019-05-07T21:36:54.312Z,16.70
2019-05-07T21:39:25.558Z,14.37
2019-05-07T21:41:56.698Z,13.50
2019-05-07T21:44:27.387Z,17.20
2019-05-07T21:46:57.761Z,18.80
2019-05-07T21:49:28.483Z,14.50
2019-05-07T21:52:01.742Z,14.93
2019-05-07T21:55:02.509Z,15.20
2019-05-07T21:57:49.211Z,17.80
2019-05-07T22:00:39.105Z,16.87
2019-05-07T22:03:13.091Z,19.33
2019-05-07T22:05:44.382Z,18.20
2019-05-07T22:08:15.193Z,15.60
2019-05-07T22:10:45.846Z,16.87
2019-05-07T22:13:17.700Z,22.00
2019-05-07T22:15:55.088Z,18.00
2019-05-07T22:18:24.256Z,19.80
2019-05-07T22:20:54.526Z,18.07
2019-05-07T22:23:24.902Z,18.20
2019-05-07T22:25:55.148Z,18.93
2019-05-07T22:28:25.434Z,20.67
2019-05-07T22:31:14.966Z,17.57
2019-05-07T22:33:59.387Z,23.10
2019-05-07T22:36:32.523Z,19.47
2019-05-07T22:39:02.094Z,18.70
2019-05-07T22:41:32.423Z,18.67
2019-05-07T22:44:03.044Z,21.17
2019-05-07T22:46:33.408Z,23.57
2019-05-07T22:49:03.801Z,20.60
2019-05-07T22:51:34.164Z,21.63
2019-05-07T22:54:04.394Z,21.00
2019-05-07T22:56:52.537Z,25.10
2019-05-07T22:59:22.773Z,21.10
2019-05-07T23:01:54.929Z,25.63
2019-05-07T23:04:24.358Z,20.13
2019-05-07T23:06:54.608Z,20.77
2019-05-07T23:09:24.550Z,23.10
2019-05-07T23:11:54.994Z,19.77
2019-05-07T23:14:25.926Z,21.57
2019-05-07T23:16:55.905Z,21.70
2019-05-07T23:19:26.287Z,22.87
2019-05-07T23:21:56.181Z,20.00
2019-05-07T23:24:26.017Z,20.43
2019-05-07T23:26:56.329Z,20.53
2019-05-07T23:29:26.773Z,22.70
2019-05-07T23:31:56.900Z,23.43
2019-05-07T23:34:27.194Z,25.77
2019-05-07T23:36:57.763Z,22.80
2019-05-07T23:39:30.464Z,22.50
2019-05-07T23:42:12.681Z,24.07
2019-05-07T23:44:43.150Z,24.00
2019-05-07T23:47:13.745Z,23.33
2019-05-07T23:49:43.763Z,21.60
2019-05-07T23:52:15.721Z,19.67
2019-05-07T23:54:45.943Z,22.00
2019-05-07T23:57:15.893Z,23.90
2019-05-07T23:59:46.998Z,26.13
